Larrimah, Australia
Current Conditions -  °F | °C
As of 8:30 AM on Saturday 25 Oct 2014 (Local Time) from YPTN Reporting Station
Clear Clear  
Wind Chill: 86°   Ceiling: Unl
Heat Index: 86°   Visibility: 6mi
Dew Point: 61°   Wind: 3mph
Humidity: 43%   Direction: 260°W
Pressure: 30"   Gusts: NA
Location:  15.57°S, 133.22°E
Report Text: YPTN 242330Z AUTO 26003KT 9999 // NCD 30/16 Q1016
Loading
Personal Weather Stations






























Interactive Weather Map
Tropical Storm Tracking
New forecast layout! Learn more

10-Day Weather Forecast

Advertisements
Track Severe Weather on mobile